Time;durP1;ratioP1;P1;durP2;ratioP2;P2;SDS_P1;SDS_P2;PMS_P1;PMS_P2;Temp;Humidity;BMP_temperature;BMP_pressure;BME280_temperature;BME280_humidity;BME280_pressure;Samples;Min_cycle;Max_cycle;Signal;HPM_P1;HPM_P2
2023/06/11 00:00:32;;;;;;;11.77;8.65;;;19.00;74.80;;;;;;2100718;28;20120;-75
2023/06/11 00:01:32;;;;;;;12.50;8.75;;;19.00;74.60;;;;;;2092847;28;20170;-75
2023/06/11 00:02:33;;;;;;;11.88;7.72;;;19.00;74.50;;;;;;2093086;28;20031;-74
2023/06/11 00:03:34;;;;;;;11.13;7.55;;;19.00;71.60;;;;;;2105410;28;20027;-75
2023/06/11 00:04:35;;;;;;;13.48;7.70;;;19.10;71.80;;;;;;2097738;28;20597;-75
2023/06/11 00:05:36;;;;;;;10.80;7.30;;;19.10;71.90;;;;;;2094756;28;20116;-76
2023/06/11 00:06:36;;;;;;;12.93;7.38;;;19.10;72.20;;;;;;2092869;28;20047;-75
2023/06/11 00:07:40;;;;;;;10.65;7.43;;;19.10;71.20;;;;;;2105020;28;20020;-74
2023/06/11 00:08:40;;;;;;;9.20;7.57;;;19.10;70.80;;;;;;2080929;28;20048;-75
2023/06/11 00:09:41;;;;;;;9.48;6.80;;;19.10;70.20;;;;;;2083386;28;20120;-75
2023/06/11 00:10:42;;;;;;;10.02;6.72;;;19.10;68.60;;;;;;2093985;28;20020;-75
2023/06/11 00:11:42;;;;;;;9.48;7.32;;;19.10;68.60;;;;;;2093722;28;20094;-75
2023/06/11 00:12:43;;;;;;;12.00;7.57;;;19.20;69.10;;;;;;2091279;28;20056;-76
2023/06/11 00:13:44;;;;;;;11.02;7.28;;;19.20;69.50;;;;;;2095576;28;20044;-76
2023/06/11 00:14:45;;;;;;;8.73;6.65;;;19.20;69.80;;;;;;2098627;28;20213;-76
2023/06/11 00:15:45;;;;;;;9.50;6.97;;;19.20;69.40;;;;;;2103379;28;20028;-75
2023/06/11 00:16:46;;;;;;;11.45;7.22;;;19.20;69.30;;;;;;2106661;28;20438;-76
2023/06/11 00:17:47;;;;;;;10.07;7.20;;;19.20;69.60;;;;;;2093020;28;20382;-76
2023/06/11 00:18:48;;;;;;;10.82;7.10;;;19.10;68.80;;;;;;2101205;28;20030;-75
2023/06/11 00:19:50;;;;;;;11.63;6.85;;;19.10;69.00;;;;;;2093706;28;20462;-77
2023/06/11 00:20:51;;;;;;;11.73;7.15;;;19.20;68.20;;;;;;2092024;28;20031;-77
2023/06/11 00:21:52;;;;;;;12.50;7.18;;;19.20;68.00;;;;;;2098076;28;20175;-74
2023/06/11 00:22:53;;;;;;;9.00;6.93;;;19.20;68.60;;;;;;2099450;28;20024;-75
2023/06/11 00:23:53;;;;;;;8.07;6.40;;;19.20;66.70;;;;;;2097564;28;20049;-74
2023/06/11 00:24:54;;;;;;;8.55;6.25;;;19.20;66.50;;;;;;2091562;28;20561;-74
2023/06/11 00:25:55;;;;;;;8.45;6.20;;;19.20;66.90;;;;;;2093014;28;20044;-75
2023/06/11 00:26:55;;;;;;;7.95;6.22;;;19.20;67.20;;;;;;2092617;28;20490;-75
2023/06/11 00:27:56;;;;;;;7.97;6.47;;;19.10;67.40;;;;;;2096878;28;20085;-74
2023/06/11 00:28:56;;;;;;;10.10;6.60;;;19.10;67.10;;;;;;2102464;28;20031;-75
2023/06/11 00:29:57;;;;;;;10.88;6.65;;;19.10;67.50;;;;;;2098165;28;20130;-75
2023/06/11 00:31:00;;;;;;;8.77;6.80;;;19.10;67.60;;;;;;2098750;28;20441;-75
2023/06/11 00:32:00;;;;;;;9.82;7.32;;;19.10;68.20;;;;;;2098573;28;20032;-74
2023/06/11 00:33:01;;;;;;;9.65;7.22;;;19.00;68.90;;;;;;2098815;28;20022;-74
2023/06/11 00:34:02;;;;;;;8.80;6.53;;;19.00;68.70;;;;;;2097000;28;20491;-74
2023/06/11 00:35:08;;;;;;;9.35;6.90;;;19.00;68.30;;;;;;2099506;28;20087;-74
2023/06/11 00:36:09;;;;;;;11.63;6.72;;;19.00;68.60;;;;;;2098030;28;20469;-74
2023/06/11 00:37:11;;;;;;;9.73;6.80;;;18.90;68.50;;;;;;2089786;28;20680;-74
2023/06/11 00:38:12;;;;;;;7.93;6.35;;;18.90;68.40;;;;;;2092897;28;20103;-75
2023/06/11 00:39:12;;;;;;;8.30;6.40;;;18.90;68.60;;;;;;2092063;28;20372;-73
2023/06/11 00:40:13;;;;;;;12.52;6.93;;;18.90;68.50;;;;;;2100713;28;20028;-73
2023/06/11 00:41:14;;;;;;;10.07;6.30;;;18.80;68.40;;;;;;2102861;28;20035;-74
2023/06/11 00:42:19;;;;;;;12.25;6.95;;;18.90;66.50;;;;;;2104954;28;20189;-73
2023/06/11 00:43:22;;;;;;;10.15;6.07;;;18.90;66.80;;;;;;2098487;28;20140;-74
2023/06/11 00:44:23;;;;;;;9.85;6.55;;;18.90;66.90;;;;;;2099640;28;20082;-74
2023/06/11 00:45:24;;;;;;;10.48;6.60;;;18.90;67.40;;;;;;2098981;28;20477;-74
2023/06/11 00:46:26;;;;;;;8.98;6.47;;;18.90;67.60;;;;;;2093469;28;20115;-74
2023/06/11 00:47:27;;;;;;;12.80;6.82;;;18.90;67.30;;;;;;2096718;28;20040;-74
2023/06/11 00:48:27;;;;;;;10.20;6.30;;;18.80;68.00;;;;;;2095432;28;20476;-74
2023/06/11 00:49:28;;;;;;;14.00;6.40;;;18.80;67.30;;;;;;2100381;28;20136;-74
2023/06/11 00:50:29;;;;;;;9.65;6.70;;;18.80;67.10;;;;;;2087477;28;20688;-74
2023/06/11 00:51:30;;;;;;;9.27;6.88;;;18.80;67.40;;;;;;2091777;28;20028;-74
2023/06/11 00:52:31;;;;;;;11.55;6.90;;;18.70;68.00;;;;;;2098199;28;20062;-74
2023/06/11 00:53:32;;;;;;;8.88;6.70;;;18.70;68.90;;;;;;2103263;28;20267;-74
2023/06/11 00:54:33;;;;;;;10.20;6.72;;;18.70;68.90;;;;;;2098248;28;20115;-75
2023/06/11 00:55:33;;;;;;;10.20;6.50;;;18.70;68.60;;;;;;2097586;28;20028;-74
2023/06/11 00:56:34;;;;;;;9.07;6.55;;;18.70;68.70;;;;;;2101706;28;20031;-74
2023/06/11 00:57:40;;;;;;;9.05;7.05;;;18.60;69.10;;;;;;2099093;28;20109;-75
2023/06/11 00:58:40;;;;;;;11.02;7.05;;;18.60;69.80;;;;;;2093040;28;20596;-74
2023/06/11 00:59:42;;;;;;;10.43;6.70;;;18.60;70.30;;;;;;2100766;28;20094;-78
2023/06/11 01:00:45;;;;;;;7.82;6.30;;;18.60;70.50;;;;;;2092052;28;20024;-74
2023/06/11 01:02:05;;;;;;;10.80;6.65;;;18.50;70.70;;;;;;2092306;28;20092;-74
2023/06/11 01:03:10;;;;;;;11.32;6.50;;;18.50;71.00;;;;;;2100718;28;20041;-73
2023/06/11 01:04:17;;;;;;;10.52;7.07;;;18.50;71.10;;;;;;2101533;28;20117;-74
2023/06/11 01:05:21;;;;;;;9.57;6.72;;;18.40;71.10;;;;;;2097890;28;20028;-73
2023/06/11 01:06:24;;;;;;;9.25;6.50;;;18.40;71.30;;;;;;2099416;28;20034;-74
2023/06/11 01:07:30;;;;;;;12.13;6.85;;;18.40;71.80;;;;;;2092692;28;20522;-74
2023/06/11 01:08:38;;;;;;;9.00;6.03;;;18.30;72.00;;;;;;2092061;28;20070;-74
2023/06/11 01:09:40;;;;;;;7.20;6.28;;;18.30;72.30;;;;;;2088575;28;20033;-73
2023/06/11 01:10:42;;;;;;;12.98;6.30;;;18.30;72.10;;;;;;2091731;28;20142;-73
2023/06/11 01:11:42;;;;;;;10.55;6.05;;;18.20;72.90;;;;;;2085918;28;20025;-74
2023/06/11 01:12:43;;;;;;;8.02;5.90;;;18.20;73.50;;;;;;2087552;28;20060;-74
2023/06/11 01:13:43;;;;;;;9.50;6.78;;;18.20;73.70;;;;;;2101151;28;20403;-74
2023/06/11 01:14:46;;;;;;;10.40;6.50;;;18.20;74.20;;;;;;2092428;28;20612;-74
2023/06/11 01:15:47;;;;;;;10.20;6.50;;;18.10;74.80;;;;;;2093361;28;20032;-72
2023/06/11 01:17:02;;;;;;;9.77;6.70;;;18.10;75.80;;;;;;2100157;28;20046;-75
2023/06/11 01:18:12;;;;;;;12.13;6.97;;;18.10;76.90;;;;;;2095210;28;20044;-74
2023/06/11 01:19:30;;;;;;;10.00;6.55;;;18.10;78.10;;;;;;2093397;28;20029;-74
2023/06/11 01:20:41;;;;;;;12.20;6.88;;;18.10;78.20;;;;;;2100076;28;20108;-74
2023/06/11 01:21:53;;;;;;;9.73;6.63;;;18.10;78.50;;;;;;2099826;28;20511;-75
2023/06/11 01:23:23;;;;;;;8.63;6.00;;;18.00;79.60;;;;;;2088752;28;20029;-74
2023/06/11 01:24:41;;;;;;;8.63;5.95;;;18.00;79.90;;;;;;2094303;28;20063;-74
2023/06/11 01:25:50;;;;;;;11.60;6.35;;;17.90;80.90;;;;;;2095399;28;20032;-74
2023/06/11 01:27:10;;;;;;;12.60;6.50;;;17.90;81.20;;;;;;2093336;28;20120;-74
2023/06/11 01:28:19;;;;;;;8.90;6.32;;;17.80;80.40;;;;;;2096288;28;20032;-74
2023/06/11 01:29:22;;;;;;;8.50;6.18;;;17.80;80.00;;;;;;2089883;28;20071;-74
2023/06/11 01:30:23;;;;;;;10.80;5.90;;;17.70;79.90;;;;;;2092034;28;20201;-73
2023/06/11 01:31:29;;;;;;;8.27;6.20;;;17.70;80.10;;;;;;2090630;28;20071;-73
2023/06/11 01:32:31;;;;;;;11.07;6.22;;;17.70;80.30;;;;;;2091483;28;20032;-74
2023/06/11 01:33:35;;;;;;;6.95;6.15;;;17.70;80.30;;;;;;2085487;28;20024;-73
2023/06/11 01:34:41;;;;;;;8.05;6.22;;;17.60;80.00;;;;;;2081643;28;20494;-73
2023/06/11 01:35:43;;;;;;;10.18;6.32;;;17.60;79.80;;;;;;2092665;28;20039;-73
2023/06/11 01:36:44;;;;;;;9.45;6.60;;;17.60;80.40;;;;;;2083784;28;20021;-74
2023/06/11 01:37:45;;;;;;;8.50;6.20;;;17.50;79.40;;;;;;2086653;28;20036;-74
2023/06/11 01:38:51;;;;;;;10.75;6.40;;;17.50;79.40;;;;;;2100371;28;20131;-74
2023/06/11 01:40:02;;;;;;;9.95;5.97;;;17.50;79.90;;;;;;2098857;28;20023;-74
2023/06/11 01:41:19;;;;;;;9.98;6.45;;;17.50;80.50;;;;;;2092855;28;20032;-73
2023/06/11 01:42:20;;;;;;;11.50;6.32;;;17.50;78.60;;;;;;2088412;28;20100;-74
2023/06/11 01:43:20;;;;;;;7.38;5.50;;;17.50;77.50;;;;;;2097259;28;20451;-74
2023/06/11 01:44:22;;;;;;;8.52;6.13;;;17.50;74.40;;;;;;2100340;28;20449;-74
2023/06/11 01:45:23;;;;;;;10.75;6.30;;;17.50;74.30;;;;;;2096348;28;20036;-74
2023/06/11 01:46:24;;;;;;;10.15;6.20;;;17.50;74.20;;;;;;2085734;28;20024;-74
2023/06/11 01:47:25;;;;;;;9.18;5.60;;;17.60;74.20;;;;;;2093739;28;20504;-74
2023/06/11 01:48:25;;;;;;;9.20;6.00;;;17.60;74.10;;;;;;2094571;28;20484;-75
2023/06/11 01:49:26;;;;;;;8.23;5.63;;;17.60;74.00;;;;;;2100998;28;20037;-73
2023/06/11 01:50:26;;;;;;;10.10;5.70;;;17.60;73.70;;;;;;2086598;28;20027;-73
2023/06/11 01:51:27;;;;;;;8.00;5.88;;;17.60;73.60;;;;;;2082346;28;20907;-74
2023/06/11 01:52:28;;;;;;;8.82;5.90;;;17.60;74.10;;;;;;2081576;28;20374;-74
2023/06/11 01:53:28;;;;;;;8.63;5.95;;;17.50;74.70;;;;;;2090083;28;20024;-74
2023/06/11 01:54:29;;;;;;;8.40;6.55;;;17.50;75.60;;;;;;2095204;28;20032;-74
2023/06/11 01:55:30;;;;;;;8.52;6.20;;;17.50;75.90;;;;;;2096601;28;20028;-74
2023/06/11 01:56:32;;;;;;;8.75;5.95;;;17.50;76.30;;;;;;2096588;28;20130;-74
2023/06/11 01:57:34;;;;;;;10.75;6.68;;;17.50;76.80;;;;;;2098727;28;20040;-74
2023/06/11 01:58:34;;;;;;;7.95;6.40;;;17.40;77.00;;;;;;2088647;28;20024;-75
2023/06/11 01:59:35;;;;;;;9.43;6.13;;;17.40;77.10;;;;;;2075066;28;20578;-75
2023/06/11 02:00:36;;;;;;;8.73;6.50;;;17.40;77.50;;;;;;2084792;28;20139;-75
2023/06/11 02:01:36;;;;;;;10.38;6.25;;;17.40;77.40;;;;;;2085570;28;20471;-75
2023/06/11 02:02:40;;;;;;;11.48;6.65;;;17.30;77.10;;;;;;2098098;28;20039;-75
2023/06/11 02:03:41;;;;;;;9.27;6.13;;;17.30;77.30;;;;;;2095058;28;20036;-75
2023/06/11 02:04:41;;;;;;;10.80;7.13;;;17.30;77.50;;;;;;2099933;28;20037;-75
2023/06/11 02:05:43;;;;;;;7.93;6.10;;;17.40;77.60;;;;;;2096715;28;20578;-75
2023/06/11 02:06:43;;;;;;;9.32;6.25;;;17.30;77.70;;;;;;2091816;28;20028;-74
2023/06/11 02:07:45;;;;;;;8.02;5.75;;;17.30;77.10;;;;;;2090001;28;20123;-73
2023/06/11 02:08:46;;;;;;;9.63;5.95;;;17.30;76.90;;;;;;2094278;28;20469;-74
2023/06/11 02:09:46;;;;;;;6.85;5.95;;;17.30;76.90;;;;;;2099683;28;20032;-74
2023/06/11 02:10:47;;;;;;;8.55;6.20;;;17.30;77.20;;;;;;2091719;28;20024;-74
2023/06/11 02:11:48;;;;;;;8.13;5.95;;;17.20;77.20;;;;;;2086642;28;20394;-73
2023/06/11 02:12:48;;;;;;;8.68;6.10;;;17.30;77.10;;;;;;2088625;28;20477;-73
2023/06/11 02:13:49;;;;;;;7.82;6.57;;;17.20;76.70;;;;;;2083629;28;20036;-74
2023/06/11 02:14:50;;;;;;;9.77;6.35;;;17.20;77.40;;;;;;2089845;28;20509;-75
2023/06/11 02:15:51;;;;;;;8.18;6.40;;;17.20;77.70;;;;;;2093389;28;20028;-74
2023/06/11 02:16:51;;;;;;;9.27;6.63;;;17.20;77.90;;;;;;2095702;28;20037;-74
2023/06/11 02:17:53;;;;;;;8.88;6.13;;;17.10;78.00;;;;;;2099980;28;20035;-74
2023/06/11 02:18:53;;;;;;;8.55;6.40;;;17.10;77.50;;;;;;2090100;28;20567;-74
2023/06/11 02:19:54;;;;;;;10.25;6.40;;;17.10;77.60;;;;;;2081979;28;20377;-73
2023/06/11 02:20:55;;;;;;;9.52;6.40;;;17.10;77.80;;;;;;2094246;28;20127;-74
2023/06/11 02:21:55;;;;;;;8.55;5.95;;;17.10;78.00;;;;;;2095733;28;20073;-74
2023/06/11 02:22:56;;;;;;;8.10;5.82;;;17.00;77.60;;;;;;2100937;28;20032;-73
2023/06/11 02:23:56;;;;;;;8.98;6.22;;;17.00;77.90;;;;;;2092780;28;20016;-74
2023/06/11 02:24:57;;;;;;;10.35;6.32;;;17.00;77.50;;;;;;2093138;28;20024;-74
2023/06/11 02:25:57;;;;;;;9.57;6.10;;;17.00;77.70;;;;;;2097707;28;20024;-73
2023/06/11 02:26:58;;;;;;;10.23;6.50;;;17.00;78.20;;;;;;2100893;28;20099;-74
2023/06/11 02:27:59;;;;;;;7.50;6.45;;;17.00;78.80;;;;;;2092903;28;20421;-74
2023/06/11 02:29:02;;;;;;;9.68;6.45;;;16.90;79.30;;;;;;2093115;28;20028;-74
2023/06/11 02:30:03;;;;;;;9.60;6.60;;;16.90;79.40;;;;;;2099045;28;20401;-74
2023/06/11 02:31:04;;;;;;;9.50;6.60;;;16.90;79.70;;;;;;2098858;28;20340;-73
2023/06/11 02:32:07;;;;;;;10.50;6.88;;;16.90;79.80;;;;;;2091209;28;20035;-74
2023/06/11 02:33:07;;;;;;;10.93;6.85;;;16.80;79.80;;;;;;2088008;28;20036;-73
2023/06/11 02:34:09;;;;;;;11.32;6.82;;;16.80;80.00;;;;;;2098237;28;20027;-75
2023/06/11 02:35:10;;;;;;;10.27;6.63;;;16.80;80.40;;;;;;2096600;28;20122;-73
2023/06/11 02:36:10;;;;;;;7.57;6.60;;;16.80;81.00;;;;;;2100799;28;20028;-73
2023/06/11 02:37:11;;;;;;;9.27;6.93;;;16.80;81.30;;;;;;2099248;28;20374;-74
2023/06/11 02:38:11;;;;;;;10.50;6.78;;;16.70;81.70;;;;;;2086164;28;20040;-74
2023/06/11 02:39:12;;;;;;;10.90;6.70;;;16.70;81.80;;;;;;2086139;28;20110;-73
2023/06/11 02:40:13;;;;;;;9.68;6.57;;;16.70;81.80;;;;;;2082726;28;20055;-74
2023/06/11 02:41:15;;;;;;;10.27;6.72;;;16.70;81.80;;;;;;2095768;28;20529;-73
2023/06/11 02:42:16;;;;;;;10.50;6.93;;;16.70;82.10;;;;;;2099205;28;20517;-74
2023/06/11 02:43:16;;;;;;;9.48;6.95;;;16.60;82.10;;;;;;2097073;28;20035;-74
2023/06/11 02:44:17;;;;;;;10.27;6.55;;;16.60;82.00;;;;;;2096812;28;20760;-75
2023/06/11 02:45:17;;;;;;;9.30;7.05;;;16.60;82.30;;;;;;2096360;28;20024;-75
2023/06/11 02:46:18;;;;;;;11.80;6.70;;;16.60;82.60;;;;;;2099996;28;20073;-74
2023/06/11 02:47:19;;;;;;;13.13;6.80;;;16.60;82.80;;;;;;2088343;28;20598;-74
2023/06/11 02:48:19;;;;;;;10.88;6.78;;;16.50;82.50;;;;;;2086425;28;20060;-74
2023/06/11 02:49:20;;;;;;;9.45;6.82;;;16.50;82.30;;;;;;2088322;28;20105;-73
2023/06/11 02:50:21;;;;;;;8.15;6.43;;;16.50;82.30;;;;;;2098229;28;20032;-74
2023/06/11 02:51:21;;;;;;;10.82;6.90;;;16.50;82.30;;;;;;2086579;28;20583;-73
2023/06/11 02:52:22;;;;;;;11.13;6.82;;;16.40;82.50;;;;;;2090596;28;20041;-73
2023/06/11 02:53:23;;;;;;;12.05;7.07;;;16.50;83.10;;;;;;2099793;28;20116;-73
2023/06/11 02:54:23;;;;;;;11.40;7.07;;;16.50;83.10;;;;;;2099435;28;20028;-74
2023/06/11 02:55:24;;;;;;;11.27;7.07;;;16.50;83.40;;;;;;2091842;28;20020;-74
2023/06/11 02:56:26;;;;;;;11.38;6.78;;;16.50;84.80;;;;;;2094467;28;20119;-74
2023/06/11 02:57:26;;;;;;;8.30;6.30;;;16.40;85.10;;;;;;2097741;28;20039;-73
2023/06/11 02:58:27;;;;;;;10.05;6.60;;;16.40;85.10;;;;;;2099437;28;20039;-73
2023/06/11 02:59:28;;;;;;;10.40;6.75;;;16.40;85.10;;;;;;2090362;28;20119;-75
2023/06/11 03:00:28;;;;;;;10.02;6.90;;;16.40;85.10;;;;;;2082813;28;20037;-75
2023/06/11 03:01:29;;;;;;;9.80;6.82;;;16.40;85.30;;;;;;2085285;28;20040;-74
2023/06/11 03:02:29;;;;;;;10.63;7.07;;;16.30;85.60;;;;;;2095458;28;20021;-74
2023/06/11 03:03:30;;;;;;;10.40;6.55;;;16.30;85.60;;;;;;2090927;28;20427;-74
2023/06/11 03:04:32;;;;;;;10.73;7.18;;;16.30;85.80;;;;;;2088189;28;20035;-73
2023/06/11 03:05:32;;;;;;;12.77;7.00;;;16.30;86.00;;;;;;2086515;28;20025;-74
2023/06/11 03:06:33;;;;;;;11.90;7.15;;;16.20;86.00;;;;;;2094277;28;20040;-73
2023/06/11 03:07:34;;;;;;;10.57;6.78;;;16.20;86.00;;;;;;2090118;28;20081;-74
2023/06/11 03:08:35;;;;;;;8.60;6.68;;;16.20;86.20;;;;;;2095420;28;20036;-74
2023/06/11 03:09:36;;;;;;;10.48;7.18;;;16.20;86.30;;;;;;2089271;28;20431;-74
2023/06/11 03:10:36;;;;;;;9.95;6.90;;;16.20;86.10;;;;;;2096518;28;20168;-74
2023/06/11 03:11:37;;;;;;;10.68;6.75;;;16.20;86.20;;;;;;2094286;28;20119;-74
2023/06/11 03:12:37;;;;;;;9.50;6.70;;;16.10;86.40;;;;;;2093528;28;20546;-74
2023/06/11 03:13:38;;;;;;;8.18;6.70;;;16.10;86.20;;;;;;2096537;28;20166;-74
2023/06/11 03:14:39;;;;;;;11.63;6.82;;;16.10;86.40;;;;;;2082004;28;20032;-74
2023/06/11 03:15:40;;;;;;;11.50;7.18;;;16.10;86.70;;;;;;2090814;28;20032;-74
2023/06/11 03:16:40;;;;;;;12.75;7.10;;;16.10;87.10;;;;;;2090120;28;20125;-74
2023/06/11 03:17:41;;;;;;;9.77;7.13;;;16.10;86.80;;;;;;2087149;28;20043;-74
2023/06/11 03:18:42;;;;;;;11.98;7.20;;;16.10;86.70;;;;;;2084024;28;20025;-74
2023/06/11 03:19:43;;;;;;;12.93;7.47;;;16.10;87.60;;;;;;2089927;28;20028;-74
2023/06/11 03:20:45;;;;;;;11.15;7.50;;;16.10;89.90;;;;;;2086949;28;20301;-73
2023/06/11 03:21:46;;;;;;;11.77;7.18;;;16.10;90.40;;;;;;2096054;28;20103;-74
2023/06/11 03:22:48;;;;;;;8.93;6.70;;;16.10;90.50;;;;;;2095162;28;20040;-74
2023/06/11 03:23:50;;;;;;;10.40;7.05;;;16.10;90.10;;;;;;2090754;28;20028;-74
2023/06/11 03:24:53;;;;;;;9.60;6.93;;;16.10;89.80;;;;;;2094110;28;20032;-74
2023/06/11 03:26:03;;;;;;;;;;;16.10;89.90;;;;;;2082036;28;20378;-73
2023/06/11 03:27:11;;;;;;;13.30;7.43;;;16.10;89.90;;;;;;2084238;28;19913;-74
2023/06/11 03:28:11;;;;;;;12.40;7.82;;;16.10;89.90;;;;;;2102178;28;20023;-74
2023/06/11 03:29:12;;;;;;;9.70;7.25;;;16.10;90.10;;;;;;2099121;28;20505;-75
2023/06/11 03:30:20;;;;;;;11.77;7.28;;;16.10;90.30;;;;;;2098939;28;20043;-74
2023/06/11 03:31:20;;;;;;;10.60;7.47;;;16.10;91.70;;;;;;2096730;28;20483;-74
2023/06/11 03:32:23;;;;;;;11.10;7.32;;;16.10;92.40;;;;;;2096353;28;20017;-74
2023/06/11 03:33:25;;;;;;;10.07;7.07;;;16.10;92.40;;;;;;2093373;28;20082;-73
2023/06/11 03:34:26;;;;;;;10.73;7.30;;;16.10;92.30;;;;;;2096208;28;20032;-73
2023/06/11 03:35:30;;;;;;;10.30;7.22;;;16.10;92.30;;;;;;2082019;28;20017;-73
2023/06/11 03:36:33;;;;;;;9.45;7.05;;;16.10;92.40;;;;;;2082156;28;20040;-73
2023/06/11 03:37:35;;;;;;;11.52;7.25;;;16.10;92.80;;;;;;2086537;28;20032;-74
2023/06/11 03:38:36;;;;;;;12.00;7.40;;;16.10;92.80;;;;;;2096420;28;20020;-74
2023/06/11 03:39:36;;;;;;;8.98;7.32;;;16.10;92.80;;;;;;2096669;28;20023;-74
2023/06/11 03:40:37;;;;;;;11.73;7.30;;;16.10;93.10;;;;;;2090695;28;20172;-75
2023/06/11 03:41:39;;;;;;;10.48;6.90;;;16.10;93.00;;;;;;2089413;28;20123;-75
2023/06/11 03:42:40;;;;;;;9.98;7.30;;;16.10;93.00;;;;;;2096611;28;20028;-75
2023/06/11 03:43:41;;;;;;;11.38;7.10;;;16.10;92.70;;;;;;2095265;28;20032;-75
2023/06/11 03:44:41;;;;;;;12.57;7.00;;;16.20;92.40;;;;;;2086958;28;20048;-75
2023/06/11 03:45:45;;;;;;;10.57;7.47;;;16.20;92.60;;;;;;2083706;28;20029;-75
2023/06/11 03:46:46;;;;;;;10.80;7.75;;;16.20;92.70;;;;;;2090259;28;20028;-75
2023/06/11 03:47:52;;;;;;;9.77;6.80;;;16.20;92.50;;;;;;2097482;28;20027;-73
2023/06/11 03:48:52;;;;;;;14.05;7.40;;;16.20;92.40;;;;;;2094496;28;20135;-75
2023/06/11 03:49:53;;;;;;;10.82;7.18;;;16.20;92.50;;;;;;2087299;28;20028;-75
2023/06/11 03:50:54;;;;;;;14.30;7.35;;;16.20;92.60;;;;;;2096847;28;20023;-74
2023/06/11 03:51:55;;;;;;;9.27;7.15;;;16.20;92.50;;;;;;2096352;28;20050;-74
2023/06/11 03:52:56;;;;;;;11.13;7.38;;;16.30;92.50;;;;;;2095752;28;20576;-74
2023/06/11 03:53:57;;;;;;;10.43;7.05;;;16.30;92.60;;;;;;2092104;28;20036;-74
2023/06/11 03:54:58;;;;;;;9.05;7.03;;;16.30;93.10;;;;;;2076347;28;20024;-74
2023/06/11 03:55:59;;;;;;;14.65;7.63;;;16.30;93.30;;;;;;2087540;28;20027;-74
2023/06/11 03:56:59;;;;;;;11.48;6.93;;;16.30;93.10;;;;;;2082652;28;20028;-75
2023/06/11 03:58:00;;;;;;;11.00;7.28;;;16.40;93.10;;;;;;2075376;28;20405;-74
2023/06/11 03:59:01;;;;;;;14.60;7.00;;;16.40;93.20;;;;;;2094688;28;20459;-75
2023/06/11 04:00:02;;;;;;;19.33;8.00;;;16.40;93.20;;;;;;2095153;28;20036;-75
2023/06/11 04:01:04;;;;;;;9.30;7.00;;;16.40;93.10;;;;;;2093091;28;20820;-73
2023/06/11 04:02:05;;;;;;;10.18;6.97;;;16.50;92.90;;;;;;2093366;28;20020;-74
2023/06/11 04:03:06;;;;;;;9.55;7.03;;;16.60;92.80;;;;;;2093603;28;20028;-74
2023/06/11 04:04:07;;;;;;;9.43;6.63;;;16.70;92.40;;;;;;2095513;28;20131;-74
2023/06/11 04:05:09;;;;;;;10.45;7.03;;;16.90;92.10;;;;;;2082104;28;20029;-75
2023/06/11 04:06:11;;;;;;;9.38;6.63;;;17.20;91.40;;;;;;2086214;28;20033;-74
2023/06/11 04:07:11;;;;;;;9.32;6.82;;;17.60;90.50;;;;;;2095200;28;20675;-74
2023/06/11 04:08:13;;;;;;;8.75;6.68;;;18.00;88.70;;;;;;2097470;28;20019;-75
2023/06/11 04:09:15;;;;;;;10.00;6.88;;;18.50;86.30;;;;;;2091650;28;20579;-74
2023/06/11 04:10:16;;;;;;;9.70;6.63;;;18.80;84.30;;;;;;2086843;28;20056;-74
2023/06/11 04:11:17;;;;;;;9.20;6.80;;;19.20;82.40;;;;;;2083704;28;20056;-75
2023/06/11 04:12:17;;;;;;;9.20;6.78;;;19.60;81.10;;;;;;2087506;28;20403;-75
2023/06/11 04:13:18;;;;;;;10.00;6.95;;;19.80;80.00;;;;;;2084640;28;20199;-75
2023/06/11 04:14:19;;;;;;;9.60;6.53;;;20.00;79.10;;;;;;2090794;28;20325;-74
2023/06/11 04:15:20;;;;;;;9.00;6.78;;;20.30;78.00;;;;;;2099838;28;20024;-73
2023/06/11 04:16:21;;;;;;;10.55;6.80;;;20.60;76.80;;;;;;2090697;28;20028;-74
2023/06/11 04:17:22;;;;;;;11.88;6.90;;;20.80;76.00;;;;;;2090251;28;20495;-73
2023/06/11 04:18:23;;;;;;;9.25;6.70;;;21.00;75.10;;;;;;2091738;28;20036;-74
2023/06/11 04:19:25;;;;;;;10.63;6.60;;;21.20;74.00;;;;;;2087468;28;20029;-74
2023/06/11 04:20:26;;;;;;;10.82;6.88;;;21.40;73.30;;;;;;2089373;28;20016;-75
2023/06/11 04:21:27;;;;;;;9.70;6.90;;;21.60;72.60;;;;;;2081156;28;20091;-74
2023/06/11 04:22:27;;;;;;;9.65;6.13;;;21.80;71.80;;;;;;2089158;28;20039;-76
2023/06/11 04:23:30;;;;;;;8.13;6.78;;;21.90;71.50;;;;;;2100305;28;20108;-74
2023/06/11 04:24:31;;;;;;;8.55;6.40;;;22.10;70.70;;;;;;2089741;28;20028;-74
2023/06/11 04:25:33;;;;;;;11.50;6.70;;;22.20;70.10;;;;;;2086246;28;20458;-74
2023/06/11 04:26:36;;;;;;;11.13;6.75;;;22.30;69.60;;;;;;2080157;28;20507;-74
2023/06/11 04:27:38;;;;;;;8.00;6.75;;;22.40;69.40;;;;;;2094494;28;20510;-74
2023/06/11 04:28:44;;;;;;;7.65;6.70;;;22.50;69.40;;;;;;2087145;28;20024;-73
2023/06/11 04:29:44;;;;;;;8.85;6.85;;;22.50;69.20;;;;;;2093659;28;20093;-74
2023/06/11 04:30:45;;;;;;;8.50;6.93;;;22.60;69.30;;;;;;2091420;28;20028;-73
2023/06/11 04:31:47;;;;;;;8.38;6.97;;;22.80;68.80;;;;;;2079233;28;20087;-73
2023/06/11 04:32:54;;;;;;;9.70;6.90;;;22.90;68.10;;;;;;2090848;28;20412;-73
2023/06/11 04:33:56;;;;;;;8.02;6.43;;;23.00;67.90;;;;;;2088824;28;20075;-73
2023/06/11 04:34:57;;;;;;;10.05;6.60;;;23.10;67.60;;;;;;2092815;28;20036;-74
2023/06/11 04:36:04;;;;;;;11.38;7.13;;;23.30;67.40;;;;;;2095633;28;20028;-74
2023/06/11 04:37:08;;;;;;;9.45;7.20;;;23.40;67.10;;;;;;2088271;28;20029;-74
2023/06/11 04:38:10;;;;;;;9.63;7.22;;;23.50;67.10;;;;;;2091875;28;20441;-74
2023/06/11 04:39:12;;;;;;;8.00;7.20;;;23.50;67.10;;;;;;2091191;28;20036;-74
2023/06/11 04:40:14;;;;;;;10.70;7.20;;;23.50;66.70;;;;;;2094953;28;20024;-74
2023/06/11 04:41:16;;;;;;;10.40;7.30;;;23.70;66.80;;;;;;2086283;28;20066;-74
2023/06/11 04:42:24;;;;;;;9.02;6.95;;;23.80;66.00;;;;;;2092948;28;20554;-74
2023/06/11 04:43:26;;;;;;;12.88;7.28;;;23.80;65.70;;;;;;2104167;28;20123;-75
2023/06/11 04:44:28;;;;;;;10.45;6.88;;;23.80;65.80;;;;;;2095692;28;20031;-74
2023/06/11 04:45:30;;;;;;;10.00;7.00;;;23.80;65.80;;;;;;2080820;28;20063;-75
2023/06/11 04:46:34;;;;;;;9.50;6.88;;;24.00;65.50;;;;;;2085953;28;20500;-74
2023/06/11 04:47:36;;;;;;;8.82;6.60;;;24.00;64.90;;;;;;2093663;28;20040;-74
2023/06/11 04:48:37;;;;;;;10.57;6.70;;;24.10;64.40;;;;;;2090985;28;20031;-74
2023/06/11 04:49:40;;;;;;;10.80;7.03;;;24.20;64.00;;;;;;2095575;28;20044;-73
2023/06/11 04:50:41;;;;;;;10.10;6.70;;;24.30;63.60;;;;;;2096983;28;20020;-74
2023/06/11 04:51:42;;;;;;;10.68;6.45;;;24.30;62.90;;;;;;2088428;28;20086;-74
2023/06/11 04:52:46;;;;;;;10.48;6.82;;;24.40;62.70;;;;;;2094880;28;20035;-74
2023/06/11 04:53:47;;;;;;;10.65;6.95;;;24.50;63.40;;;;;;2088035;28;20473;-74
2023/06/11 04:54:50;;;;;;;8.73;6.72;;;24.60;62.30;;;;;;2092117;28;20020;-74
2023/06/11 04:55:54;;;;;;;9.52;7.07;;;24.60;61.90;;;;;;2094541;28;20035;-75
2023/06/11 04:56:55;;;;;;;10.20;6.28;;;24.70;61.80;;;;;;2085443;28;20032;-74
2023/06/11 04:57:56;;;;;;;9.52;6.80;;;24.70;61.50;;;;;;2085494;28;20036;-75
2023/06/11 04:58:58;;;;;;;8.82;6.40;;;24.70;61.30;;;;;;2093598;28;20671;-76
2023/06/11 04:59:59;;;;;;;8.27;6.32;;;24.80;60.70;;;;;;2089370;28;20055;-74
2023/06/11 05:01:00;;;;;;;6.60;5.90;;;24.90;60.40;;;;;;2095960;28;20198;-74
2023/06/11 05:02:01;;;;;;;10.65;6.15;;;25.00;59.50;;;;;;2097125;28;20432;-73
2023/06/11 05:03:03;;;;;;;10.90;5.90;;;25.00;58.90;;;;;;2082736;28;20031;-74
2023/06/11 05:04:05;;;;;;;7.15;6.05;;;25.00;58.80;;;;;;2096279;28;20106;-74
2023/06/11 05:05:07;;;;;;;9.27;6.38;;;25.00;58.80;;;;;;2095035;28;20062;-74
2023/06/11 05:06:08;;;;;;;9.98;6.03;;;25.10;58.60;;;;;;2104826;28;20191;-75
2023/06/11 05:07:10;;;;;;;7.40;6.03;;;25.30;58.40;;;;;;2093930;28;20492;-74
2023/06/11 05:08:11;;;;;;;8.40;6.50;;;25.30;57.80;;;;;;2082655;28;20029;-75
2023/06/11 05:09:13;;;;;;;11.18;6.10;;;25.40;57.30;;;;;;2083671;28;20021;-74
2023/06/11 05:10:15;;;;;;;8.93;6.10;;;25.40;57.20;;;;;;2089572;28;20029;-74
2023/06/11 05:11:16;;;;;;;7.47;6.25;;;25.40;57.40;;;;;;2084682;28;20098;-74
2023/06/11 05:12:17;;;;;;;9.90;6.20;;;25.50;57.30;;;;;;2074629;28;20325;-74
2023/06/11 05:13:26;;;;;;;8.80;6.05;;;25.60;57.10;;;;;;2077696;28;20032;-74
2023/06/11 05:14:31;;;;;;;9.15;6.35;;;25.60;57.00;;;;;;2084384;28;20025;-74
2023/06/11 05:15:32;;;;;;;8.90;6.40;;;25.60;57.60;;;;;;2096995;28;20131;-74
2023/06/11 05:16:33;;;;;;;8.07;6.10;;;25.70;57.20;;;;;;2086994;28;20036;-74
2023/06/11 05:17:34;;;;;;;6.75;6.10;;;25.70;57.00;;;;;;2080464;28;20040;-74
2023/06/11 05:18:35;;;;;;;9.75;6.50;;;25.80;57.20;;;;;;2094687;28;20649;-74
2023/06/11 05:19:38;;;;;;;9.45;6.60;;;25.80;57.30;;;;;;2088673;28;20503;-74
2023/06/11 05:20:39;;;;;;;8.90;6.00;;;25.80;57.70;;;;;;2082745;28;20148;-75
2023/06/11 05:21:40;;;;;;;9.88;5.95;;;25.70;57.50;;;;;;2091965;28;20537;-74